createdAt,value
2023-03-05T00:00:47.850Z,9.59
2023-03-05T00:03:14.419Z,9.61
2023-03-05T00:05:41.012Z,9.59
2023-03-05T00:08:07.521Z,9.58
2023-03-05T00:10:34.076Z,9.58
2023-03-05T00:13:00.673Z,9.57
2023-03-05T00:15:27.223Z,9.53
2023-03-05T00:17:53.724Z,9.49
2023-03-05T00:20:20.474Z,9.46
2023-03-05T00:22:46.989Z,9.41
2023-03-05T00:25:13.601Z,9.35
2023-03-05T00:27:40.212Z,9.29
2023-03-05T00:30:07.639Z,9.22
2023-03-05T00:32:35.758Z,9.18
2023-03-05T00:35:02.375Z,9.11
2023-03-05T00:37:29.011Z,9.04
2023-03-05T00:39:55.503Z,9.01
2023-03-05T00:42:22.008Z,8.98
2023-03-05T00:44:48.565Z,8.97
2023-03-05T00:47:18.400Z,8.98
2023-03-05T00:49:45.056Z,8.96
2023-03-05T00:52:11.672Z,8.99
2023-03-05T00:54:38.273Z,9.02
2023-03-05T00:57:05.863Z,9.05
2023-03-05T00:59:32.596Z,9.08
2023-03-05T01:01:59.271Z,9.08
2023-03-05T01:04:25.820Z,9.10
2023-03-05T01:06:52.324Z,9.08
2023-03-05T01:09:19.071Z,9.06
2023-03-05T01:11:45.605Z,9.03
2023-03-05T01:14:12.285Z,8.99
2023-03-05T01:16:38.867Z,8.95
2023-03-05T01:19:05.409Z,8.91
2023-03-05T01:21:31.976Z,8.87
2023-03-05T01:23:58.891Z,8.84
2023-03-05T01:26:25.476Z,8.85
2023-03-05T01:28:52.053Z,8.88
2023-03-05T01:31:18.756Z,8.85
2023-03-05T01:33:45.333Z,8.82
2023-03-05T01:36:15.968Z,8.82
2023-03-05T01:38:43.958Z,8.83
2023-03-05T01:41:11.789Z,8.81
2023-03-05T01:43:38.536Z,8.78
2023-03-05T01:46:25.648Z,8.75
2023-03-05T01:49:01.198Z,8.72
2023-03-05T01:51:30.444Z,8.74
2023-03-05T01:53:58.247Z,8.71
2023-03-05T01:56:25.526Z,8.68
2023-03-05T01:58:52.172Z,8.62
2023-03-05T02:01:19.090Z,8.57
2023-03-05T02:03:46.623Z,8.54
2023-03-05T02:06:13.637Z,8.52
2023-03-05T02:08:40.442Z,8.51
2023-03-05T02:11:07.850Z,8.54
2023-03-05T02:13:38.217Z,8.56
2023-03-05T02:16:05.195Z,8.52
2023-03-05T02:18:31.843Z,8.47
2023-03-05T02:20:58.292Z,8.42
2023-03-05T02:23:33.784Z,8.36
2023-03-05T02:26:00.580Z,8.30
2023-03-05T02:28:45.775Z,8.29
2023-03-05T02:31:19.381Z,8.33
2023-03-05T02:33:46.895Z,8.28
2023-03-05T02:36:13.502Z,8.27
2023-03-05T02:38:40.582Z,8.27
2023-03-05T02:41:07.152Z,8.27
2023-03-05T02:43:33.911Z,8.26
2023-03-05T02:46:00.827Z,8.25
2023-03-05T02:48:27.495Z,8.23
2023-03-05T02:50:54.352Z,8.22
2023-03-05T02:53:20.933Z,8.26
2023-03-05T02:55:48.478Z,8.27
2023-03-05T02:58:15.945Z,8.28
2023-03-05T03:00:43.130Z,8.31
2023-03-05T03:03:09.757Z,8.29
2023-03-05T03:05:36.860Z,8.30
2023-03-05T03:08:03.539Z,8.30
2023-03-05T03:10:30.053Z,8.26
2023-03-05T03:12:56.786Z,8.22
2023-03-05T03:15:23.320Z,8.22
2023-03-05T03:17:49.921Z,8.26
2023-03-05T03:20:18.515Z,8.26
2023-03-05T03:22:45.816Z,8.23
2023-03-05T03:25:21.160Z,8.19
2023-03-05T03:27:47.779Z,8.17
2023-03-05T03:30:15.247Z,8.14
2023-03-05T03:32:41.894Z,8.14
2023-03-05T03:35:09.424Z,8.11
2023-03-05T03:37:36.352Z,8.10
2023-03-05T03:40:05.572Z,8.08
2023-03-05T03:42:32.151Z,8.09
2023-03-05T03:45:00.506Z,8.10
2023-03-05T03:47:27.104Z,8.11
2023-03-05T03:49:55.065Z,8.12
2023-03-05T03:52:22.998Z,8.12
2023-03-05T03:54:52.410Z,8.12
2023-03-05T03:57:19.185Z,8.11
2023-03-05T03:59:46.183Z,8.11
2023-03-05T04:02:12.956Z,8.14
2023-03-05T04:04:39.653Z,8.14
2023-03-05T04:07:06.310Z,8.13
2023-03-05T04:09:32.957Z,8.13
2023-03-05T04:11:59.502Z,8.13
2023-03-05T04:14:26.734Z,8.10
2023-03-05T04:16:53.712Z,8.06
2023-03-05T04:19:20.313Z,8.05
2023-03-05T04:21:47.058Z,8.05
2023-03-05T04:24:13.597Z,8.04
2023-03-05T04:26:40.116Z,8.05
2023-03-05T04:29:06.639Z,8.07
2023-03-05T04:31:33.270Z,8.08
2023-03-05T04:34:00.122Z,8.10
2023-03-05T04:36:26.664Z,8.06
2023-03-05T04:38:53.285Z,8.02
2023-03-05T04:41:19.860Z,8.01
2023-03-05T04:43:46.452Z,8.00
2023-03-05T04:46:13.083Z,7.97
2023-03-05T04:48:39.708Z,7.91
2023-03-05T04:51:06.260Z,7.84
2023-03-05T04:53:32.805Z,7.81
2023-03-05T04:56:01.608Z,7.79
2023-03-05T04:58:28.815Z,7.76
2023-03-05T05:00:55.389Z,7.71
2023-03-05T05:03:21.973Z,7.67
2023-03-05T05:05:54.987Z,7.62
2023-03-05T05:08:22.296Z,7.59
2023-03-05T05:11:03.360Z,7.60
2023-03-05T05:13:31.028Z,7.61
2023-03-05T05:15:57.799Z,7.61
2023-03-05T05:18:24.639Z,7.60
2023-03-05T05:20:51.229Z,7.60
2023-03-05T05:23:19.111Z,7.61
2023-03-05T05:25:45.834Z,7.63
2023-03-05T05:28:12.494Z,7.61
2023-03-05T05:30:39.179Z,7.60
2023-03-05T05:33:05.777Z,7.61
2023-03-05T05:35:32.399Z,7.60
2023-03-05T05:37:59.000Z,7.56
2023-03-05T05:40:25.529Z,7.55
2023-03-05T05:42:52.095Z,7.52
2023-03-05T05:45:18.781Z,7.49
2023-03-05T05:47:45.256Z,7.45
2023-03-05T05:50:12.183Z,7.44
2023-03-05T05:52:38.767Z,7.42
2023-03-05T05:55:06.052Z,7.41
2023-03-05T05:57:32.635Z,7.41
2023-03-05T05:59:59.202Z,7.40
2023-03-05T06:02:27.717Z,7.39
2023-03-05T06:04:55.044Z,7.39
2023-03-05T06:07:22.681Z,7.32
2023-03-05T06:09:49.213Z,7.29
2023-03-05T06:12:15.798Z,7.28
2023-03-05T06:14:42.338Z,7.15
2023-03-05T06:17:11.151Z,7.02
2023-03-05T06:19:37.939Z,6.95
2023-03-05T06:22:04.610Z,6.94
2023-03-05T06:24:31.178Z,6.97
2023-03-05T06:26:57.703Z,6.99
2023-03-05T06:29:24.302Z,6.98
2023-03-05T06:31:50.888Z,6.99
2023-03-05T06:34:17.414Z,7.03
2023-03-05T06:36:44.246Z,7.15
2023-03-05T06:39:10.862Z,7.30
2023-03-05T06:41:37.463Z,7.41
2023-03-05T06:44:04.423Z,7.47
2023-03-05T06:46:33.814Z,7.55
2023-03-05T06:49:02.285Z,7.61
2023-03-05T06:51:31.631Z,7.67
2023-03-05T06:54:10.407Z,7.71
2023-03-05T06:56:38.456Z,7.76
2023-03-05T06:59:05.841Z,7.79
2023-03-05T07:01:32.723Z,7.85
2023-03-05T07:04:00.427Z,7.90
2023-03-05T07:06:27.822Z,7.93
2023-03-05T07:08:57.973Z,8.00
2023-03-05T07:11:25.016Z,8.12
2023-03-05T07:13:51.714Z,8.21
2023-03-05T07:16:27.232Z,8.30
2023-03-05T07:18:54.687Z,8.38
2023-03-05T07:21:23.408Z,8.44
2023-03-05T07:23:50.634Z,8.51
2023-03-05T07:26:17.334Z,8.58
2023-03-05T07:28:44.121Z,8.67
2023-03-05T07:31:18.001Z,8.79
2023-03-05T07:33:45.817Z,8.91
2023-03-05T07:36:12.769Z,9.04
2023-03-05T07:38:39.400Z,9.14
2023-03-05T07:41:14.238Z,9.21
2023-03-05T07:43:41.031Z,9.28
2023-03-05T07:46:09.779Z,9.37
2023-03-05T07:48:36.520Z,9.47
2023-03-05T07:51:07.915Z,9.57
2023-03-05T07:53:34.782Z,9.64
2023-03-05T07:56:01.481Z,9.72
2023-03-05T07:58:28.082Z,9.82
2023-03-05T08:00:54.728Z,9.94
2023-03-05T08:03:21.575Z,10.10
2023-03-05T08:05:48.057Z,10.24
2023-03-05T08:08:14.704Z,10.35
2023-03-05T08:10:41.621Z,10.49
2023-03-05T08:13:08.549Z,10.61
2023-03-05T08:15:37.222Z,10.76
2023-03-05T08:18:04.479Z,10.90
2023-03-05T08:20:31.016Z,11.03
2023-03-05T08:22:57.529Z,11.14
2023-03-05T08:25:24.030Z,11.24
2023-03-05T08:27:50.633Z,11.36
2023-03-05T08:30:20.021Z,11.48
2023-03-05T08:32:49.112Z,11.63
2023-03-05T08:35:15.662Z,11.76
2023-03-05T08:37:42.283Z,11.88
2023-03-05T08:40:10.269Z,12.00
2023-03-05T08:42:36.868Z,12.12
2023-03-05T08:45:03.654Z,12.26
2023-03-05T08:47:30.222Z,12.34
2023-03-05T08:49:57.697Z,12.39
2023-03-05T08:52:25.009Z,12.50
2023-03-05T08:54:51.490Z,12.59
2023-03-05T08:57:18.480Z,12.61
2023-03-05T08:59:44.942Z,12.60
2023-03-05T09:02:14.494Z,12.60
2023-03-05T09:04:41.052Z,12.57
2023-03-05T09:07:07.981Z,12.59
2023-03-05T09:09:34.739Z,12.69
2023-03-05T09:12:02.137Z,12.68
2023-03-05T09:14:29.429Z,12.68
2023-03-05T09:16:57.069Z,12.71
2023-03-05T09:19:24.260Z,12.77
2023-03-05T09:21:50.840Z,12.81
2023-03-05T09:24:17.496Z,12.80
2023-03-05T09:26:44.296Z,12.78
2023-03-05T09:29:10.947Z,12.85
2023-03-05T09:31:37.579Z,12.85
2023-03-05T09:34:05.304Z,12.86
2023-03-05T09:36:32.765Z,12.88
2023-03-05T09:38:59.740Z,12.96
2023-03-05T09:41:59.397Z,12.98
2023-03-05T09:44:52.156Z,13.02
2023-03-05T09:47:24.881Z,12.99
2023-03-05T09:49:56.106Z,12.97
2023-03-05T09:52:45.409Z,12.97
2023-03-05T09:55:24.125Z,12.97
2023-03-05T09:57:54.851Z,13.01
2023-03-05T10:00:30.466Z,13.03
2023-03-05T10:02:58.561Z,13.05
2023-03-05T10:05:31.414Z,13.05
2023-03-05T10:08:01.658Z,13.01
2023-03-05T10:10:38.009Z,13.04
2023-03-05T10:13:13.498Z,13.00
2023-03-05T10:15:51.409Z,12.98
2023-03-05T10:18:36.464Z,12.99
2023-03-05T10:21:09.086Z,13.00
2023-03-05T10:23:45.556Z,13.00
2023-03-05T10:26:21.738Z,12.99
2023-03-05T10:29:03.572Z,12.96
2023-03-05T10:31:41.466Z,12.94
2023-03-05T10:34:11.062Z,12.95
2023-03-05T10:36:53.672Z,12.97
2023-03-05T10:39:57.168Z,12.98
2023-03-05T10:42:45.563Z,13.05
2023-03-05T10:45:21.641Z,13.06
2023-03-05T10:47:55.515Z,13.06
2023-03-05T10:50:29.102Z,13.06
2023-03-05T10:53:16.193Z,13.06
2023-03-05T10:55:43.089Z,13.05
2023-03-05T10:58:18.754Z,13.06
2023-03-05T11:01:10.181Z,13.12
2023-03-05T11:03:59.343Z,13.09
2023-03-05T11:06:33.051Z,13.07
2023-03-05T11:09:21.053Z,13.05
2023-03-05T11:12:12.205Z,13.08
2023-03-05T11:14:45.291Z,13.07
2023-03-05T11:17:28.008Z,13.06
2023-03-05T11:19:56.505Z,13.02
2023-03-05T11:22:24.853Z,13.04
2023-03-05T11:25:16.039Z,13.15
2023-03-05T11:27:52.458Z,13.16
2023-03-05T11:30:27.699Z,13.14
2023-03-05T11:33:19.384Z,13.10
2023-03-05T11:35:47.236Z,13.18
2023-03-05T11:38:24.587Z,13.25
2023-03-05T11:40:53.171Z,13.24
2023-03-05T11:43:22.940Z,13.25
2023-03-05T11:45:56.094Z,13.30
2023-03-05T11:48:29.154Z,13.30
2023-03-05T11:50:58.725Z,13.29
2023-03-05T11:53:30.790Z,13.32
2023-03-05T11:56:25.036Z,13.36
2023-03-05T11:58:58.191Z,13.40
2023-03-05T12:01:27.100Z,13.42
2023-03-05T12:03:55.547Z,13.40
2023-03-05T12:06:48.443Z,13.35
2023-03-05T12:09:26.626Z,13.35
2023-03-05T12:12:10.265Z,13.43
2023-03-05T12:14:44.909Z,13.59
2023-03-05T12:17:22.840Z,13.77
2023-03-05T12:20:00.469Z,13.91
2023-03-05T12:22:33.600Z,13.98
2023-03-05T12:25:31.184Z,14.02
2023-03-05T12:27:57.798Z,14.05
2023-03-05T12:30:42.419Z,14.16
2023-03-05T12:33:36.778Z,14.27
2023-03-05T12:36:21.802Z,14.36
2023-03-05T12:38:51.927Z,14.49
2023-03-05T12:41:25.421Z,14.61
2023-03-05T12:44:08.047Z,14.68
2023-03-05T12:46:38.544Z,14.74
2023-03-05T12:49:20.621Z,14.80
2023-03-05T12:51:47.730Z,14.80
2023-03-05T12:54:33.529Z,14.84
2023-03-05T12:57:02.871Z,14.86
2023-03-05T12:59:39.158Z,14.96
2023-03-05T13:02:19.890Z,15.12
2023-03-05T13:04:46.631Z,15.19
2023-03-05T13:07:17.918Z,15.26
2023-03-05T13:09:55.821Z,15.34
2023-03-05T13:12:23.256Z,15.37
2023-03-05T13:15:03.440Z,15.47
2023-03-05T13:17:32.837Z,15.56
2023-03-05T13:20:00.473Z,15.57
2023-03-05T13:22:27.125Z,15.56
2023-03-05T13:25:17.452Z,15.49
2023-03-05T13:27:44.122Z,15.42
2023-03-05T13:30:43.083Z,15.34
2023-03-05T13:33:17.127Z,15.25
2023-03-05T13:35:47.469Z,15.23
2023-03-05T13:38:22.302Z,15.19
2023-03-05T13:41:08.448Z,15.16
2023-03-05T13:43:43.184Z,15.15
2023-03-05T13:46:10.231Z,15.11
2023-03-05T13:48:37.323Z,15.05
2023-03-05T13:51:06.993Z,15.01
2023-03-05T13:53:34.247Z,14.99
2023-03-05T13:56:07.479Z,14.98
2023-03-05T13:58:47.609Z,14.98
2023-03-05T14:01:32.269Z,14.90
2023-03-05T14:04:26.395Z,14.87
2023-03-05T14:07:06.441Z,14.92
2023-03-05T14:09:39.123Z,14.95
2023-03-05T14:12:33.831Z,14.98
2023-03-05T14:15:02.423Z,14.96
2023-03-05T14:17:35.306Z,14.97
2023-03-05T14:20:13.724Z,14.96
2023-03-05T14:22:43.119Z,14.96
2023-03-05T14:25:34.549Z,14.95
2023-03-05T14:28:03.459Z,14.99
2023-03-05T14:30:30.967Z,15.00
2023-03-05T14:32:58.518Z,15.02
2023-03-05T14:35:27.414Z,15.03
2023-03-05T14:37:55.740Z,14.98
2023-03-05T14:40:29.490Z,14.97
2023-03-05T14:42:57.258Z,14.96
2023-03-05T14:45:36.416Z,14.94
2023-03-05T14:48:05.046Z,14.88
2023-03-05T14:50:56.312Z,14.80
2023-03-05T14:53:26.359Z,14.73
2023-03-05T14:55:56.834Z,14.69
2023-03-05T14:58:27.545Z,14.70
2023-03-05T15:00:55.434Z,14.73
2023-03-05T15:03:24.413Z,14.76
2023-03-05T15:05:53.052Z,14.78
2023-03-05T15:08:25.785Z,14.79
2023-03-05T15:10:52.797Z,14.79
2023-03-05T15:13:19.588Z,14.80
2023-03-05T15:15:47.292Z,14.83
2023-03-05T15:18:15.280Z,14.82
2023-03-05T15:20:42.035Z,14.78
2023-03-05T15:23:09.209Z,14.71
2023-03-05T15:25:35.850Z,14.64
2023-03-05T15:28:02.516Z,14.56
2023-03-05T15:30:35.389Z,14.46
2023-03-05T15:33:08.004Z,14.36
2023-03-05T15:35:34.726Z,14.24
2023-03-05T15:38:01.449Z,14.13
2023-03-05T15:40:28.531Z,14.02
2023-03-05T15:42:56.173Z,13.94
2023-03-05T15:45:22.888Z,13.87
2023-03-05T15:47:50.924Z,13.80
2023-03-05T15:50:18.962Z,13.73
2023-03-05T15:52:45.775Z,13.69
2023-03-05T15:55:12.717Z,13.64
2023-03-05T15:57:43.283Z,13.60
2023-03-05T16:00:11.322Z,13.55
2023-03-05T16:02:38.161Z,13.50
2023-03-05T16:05:05.802Z,13.43
2023-03-05T16:07:34.307Z,13.37
2023-03-05T16:10:00.903Z,13.33
2023-03-05T16:12:29.864Z,13.30
2023-03-05T16:14:56.439Z,13.24
2023-03-05T16:17:23.951Z,13.19
2023-03-05T16:19:53.290Z,13.12
2023-03-05T16:22:21.104Z,13.04
2023-03-05T16:24:47.722Z,13.00
2023-03-05T16:27:14.265Z,12.93
2023-03-05T16:29:40.853Z,12.88
2023-03-05T16:32:07.579Z,12.84
2023-03-05T16:34:34.888Z,12.77
2023-03-05T16:37:04.606Z,12.73
2023-03-05T16:39:31.320Z,12.69
2023-03-05T16:41:57.882Z,12.65
2023-03-05T16:44:24.449Z,12.59
2023-03-05T16:46:53.769Z,12.56
2023-03-05T16:49:21.094Z,12.52
2023-03-05T16:51:48.089Z,12.49
2023-03-05T16:54:15.079Z,12.45
2023-03-05T16:56:41.922Z,12.43
2023-03-05T16:59:08.487Z,12.40
2023-03-05T17:01:35.044Z,12.39
2023-03-05T17:04:02.073Z,12.36
2023-03-05T17:06:31.241Z,12.34
2023-03-05T17:08:58.306Z,12.32
2023-03-05T17:11:25.878Z,12.27
2023-03-05T17:13:52.604Z,12.25
2023-03-05T17:16:20.723Z,12.22
2023-03-05T17:18:48.011Z,12.25
2023-03-05T17:21:15.730Z,12.25
2023-03-05T17:23:42.615Z,12.25
2023-03-05T17:26:12.482Z,12.26
2023-03-05T17:28:39.575Z,12.25
2023-03-05T17:31:06.275Z,12.25
2023-03-05T17:33:34.616Z,12.24
2023-03-05T17:36:02.018Z,12.21
2023-03-05T17:38:29.307Z,12.19
2023-03-05T17:40:55.919Z,12.17
2023-03-05T17:43:22.730Z,12.16
2023-03-05T17:45:49.399Z,12.14
2023-03-05T17:48:16.330Z,12.13
2023-03-05T17:50:44.934Z,12.11
2023-03-05T17:53:11.683Z,12.11
2023-03-05T17:55:39.366Z,12.10
2023-03-05T17:58:05.955Z,12.08
2023-03-05T18:00:32.729Z,12.06
2023-03-05T18:02:59.720Z,12.04
2023-03-05T18:05:27.964Z,12.02
2023-03-05T18:07:55.539Z,12.00
2023-03-05T18:10:24.146Z,12.01
2023-03-05T18:12:50.865Z,12.02
2023-03-05T18:15:19.853Z,12.00
2023-03-05T18:17:46.411Z,12.02
2023-03-05T18:20:36.314Z,12.02
2023-03-05T18:23:04.986Z,12.01
2023-03-05T18:25:32.052Z,12.01
2023-03-05T18:28:10.243Z,12.01
2023-03-05T18:30:37.472Z,12.01
2023-03-05T18:33:04.958Z,12.01
2023-03-05T18:35:32.410Z,11.98
2023-03-05T18:37:59.422Z,11.96
2023-03-05T18:40:29.659Z,11.95
2023-03-05T18:42:56.300Z,11.94
2023-03-05T18:45:23.371Z,11.94
2023-03-05T18:47:53.965Z,11.94
2023-03-05T18:50:21.644Z,11.94
2023-03-05T18:52:48.269Z,11.93
2023-03-05T18:55:26.762Z,11.94
2023-03-05T18:57:53.503Z,11.95
2023-03-05T19:00:23.517Z,11.98
2023-03-05T19:02:50.687Z,11.97
2023-03-05T19:05:18.201Z,11.96
2023-03-05T19:07:45.426Z,11.97
2023-03-05T19:10:14.048Z,11.96
2023-03-05T19:13:12.139Z,11.98
2023-03-05T19:15:40.302Z,11.95
2023-03-05T19:18:06.868Z,11.94
2023-03-05T19:20:33.378Z,11.93
2023-03-05T19:23:00.025Z,11.93
2023-03-05T19:25:26.610Z,11.95
2023-03-05T19:27:53.252Z,11.96
2023-03-05T19:30:20.188Z,11.96
2023-03-05T19:32:49.783Z,11.94
2023-03-05T19:35:18.229Z,11.89
2023-03-05T19:37:45.974Z,11.88
2023-03-05T19:40:14.063Z,11.87
2023-03-05T19:42:40.654Z,11.85
2023-03-05T19:45:07.980Z,11.79
2023-03-05T19:47:35.920Z,11.75
2023-03-05T19:50:02.654Z,11.68
2023-03-05T19:52:30.237Z,11.66
2023-03-05T19:54:56.971Z,11.61
2023-03-05T19:57:23.495Z,11.57
2023-03-05T19:59:53.481Z,11.52
2023-03-05T20:02:22.006Z,11.46
2023-03-05T20:04:49.382Z,11.41
2023-03-05T20:07:16.418Z,11.39
2023-03-05T20:09:43.061Z,11.37
2023-03-05T20:12:10.396Z,11.39
2023-03-05T20:14:37.001Z,11.40
2023-03-05T20:17:03.598Z,11.39
2023-03-05T20:19:30.265Z,11.43
2023-03-05T20:21:56.801Z,11.45
2023-03-05T20:24:23.411Z,11.50
2023-03-05T20:26:49.924Z,11.55
2023-03-05T20:29:18.059Z,11.57
2023-03-05T20:31:45.718Z,11.57
2023-03-05T20:34:15.038Z,11.56
2023-03-05T20:36:41.810Z,11.55
2023-03-05T20:39:08.782Z,11.55
2023-03-05T20:41:36.937Z,11.55
2023-03-05T20:44:03.928Z,11.57
2023-03-05T20:46:33.662Z,11.56
2023-03-05T20:49:01.944Z,11.52
2023-03-05T20:51:31.434Z,11.49
2023-03-05T20:54:02.631Z,11.47
2023-03-05T20:56:32.211Z,11.44
2023-03-05T20:59:01.127Z,11.41
2023-03-05T21:01:28.301Z,11.41
2023-03-05T21:03:57.187Z,11.40
2023-03-05T21:06:25.204Z,11.34
2023-03-05T21:08:52.962Z,11.28
2023-03-05T21:11:19.933Z,11.22
2023-03-05T21:13:46.937Z,11.10
2023-03-05T21:16:20.469Z,10.97
2023-03-05T21:18:47.141Z,10.77
2023-03-05T21:21:13.791Z,10.61
2023-03-05T21:23:41.439Z,10.48
2023-03-05T21:26:08.096Z,10.35
2023-03-05T21:28:34.884Z,10.25
2023-03-05T21:31:09.688Z,10.17
2023-03-05T21:33:36.534Z,10.08
2023-03-05T21:36:03.886Z,10.04
2023-03-05T21:38:33.276Z,9.98
2023-03-05T21:41:02.585Z,9.93
2023-03-05T21:43:31.502Z,9.92
2023-03-05T21:46:01.118Z,9.95
2023-03-05T21:48:28.922Z,9.97
2023-03-05T21:50:55.635Z,9.94
2023-03-05T21:53:23.228Z,9.94
2023-03-05T21:56:26.346Z,9.91
2023-03-05T21:58:53.420Z,9.89
2023-03-05T22:01:21.283Z,9.88
2023-03-05T22:03:48.899Z,9.86
2023-03-05T22:06:16.930Z,9.83
2023-03-05T22:08:43.711Z,9.87
2023-03-05T22:11:11.502Z,9.92
2023-03-05T22:13:38.393Z,9.96
2023-03-05T22:16:06.032Z,10.03
2023-03-05T22:18:33.338Z,10.10
2023-03-05T22:21:00.128Z,10.14
2023-03-05T22:23:29.340Z,10.18
2023-03-05T22:26:01.236Z,10.19
2023-03-05T22:28:28.612Z,10.18
2023-03-05T22:30:55.912Z,10.18
2023-03-05T22:33:23.383Z,10.21
2023-03-05T22:35:50.712Z,10.21
2023-03-05T22:38:17.474Z,10.20
2023-03-05T22:40:46.109Z,10.18
2023-03-05T22:43:13.227Z,10.14
2023-03-05T22:45:40.215Z,10.15
2023-03-05T22:48:09.806Z,10.16
2023-03-05T22:50:40.814Z,10.14
2023-03-05T22:53:08.665Z,10.08
2023-03-05T22:55:41.944Z,10.01
2023-03-05T22:58:08.589Z,10.00
2023-03-05T23:00:35.293Z,9.99
2023-03-05T23:03:01.893Z,9.96
2023-03-05T23:05:28.521Z,9.95
2023-03-05T23:07:55.111Z,9.95
2023-03-05T23:10:27.040Z,9.93
2023-03-05T23:12:55.216Z,9.90
2023-03-05T23:15:28.075Z,9.87
2023-03-05T23:17:54.902Z,9.84
2023-03-05T23:20:24.221Z,9.82
2023-03-05T23:22:56.189Z,9.80
2023-03-05T23:25:24.260Z,9.76
2023-03-05T23:27:51.145Z,9.76
2023-03-05T23:30:21.250Z,9.75
2023-03-05T23:32:59.207Z,9.76
2023-03-05T23:35:30.812Z,9.73
2023-03-05T23:38:01.695Z,9.72
2023-03-05T23:40:33.904Z,9.72
2023-03-05T23:43:01.212Z,9.73
2023-03-05T23:45:28.652Z,9.74
2023-03-05T23:47:55.340Z,9.75
2023-03-05T23:50:24.503Z,9.78
2023-03-05T23:52:54.837Z,9.76
2023-03-05T23:55:25.295Z,9.79
2023-03-05T23:57:52.435Z,9.81
